Mt New Conquest — V7GG4 — position and weather

sailwx.info

Track history (hours):
 
Tides and Currents Weather Stations Pressure Air Temp Water Temp Dewpoint Dewpoint Depression Visibility Wind Speed Wind Dir Waves Ship Positions

Mt New Conquest

Last reported at 2015-Aug-04 13:34 UTC. Time now 2015-Aug-04 13:57 UTC.
Position N 35°06' E 139°18'.

Length 228 m; draft 8.4 m.

Type: Tanker. MMSI: 538002089.

Date/timePositionNaut miles runAvg speedWind from/ knotsBaromVisibWave heightAir tempDewpointWater temp
2015-Aug-04 13:34N 35°06' E 139°18'4 4.2
2015-Aug-04 12:33N 35°08' E 139°13'4 3.8
2015-Aug-04 11:34N 35°06' E 139°17'0 0.3
2015-Aug-04 10:33N 35°06' E 139°17'0 0.3
2015-Aug-04 09:33N 35°05' E 139°17'2 2.1
2015-Aug-04 08:33N 35°05' E 139°15'3 3.2
2015-Aug-04 07:32N 35°04' E 139°11'3 3.0
2015-Aug-04 06:26N 35°02' E 139°08'5 5.2
2015-Aug-04 05:34N 35°04' E 139°13'6 6.3
2015-Aug-04 04:33N 35°03' E 139°21'4 3.9
2015-Aug-04 03:33N 35°02' E 139°16'4 3.7
2015-Aug-04 02:33N 35°05' E 139°18'2 1.7
2015-Aug-04 01:33N 35°06' E 139°20'6 5.9
2015-Aug-04 00:33N 35°02' E 139°15'6 6.2
2015-Aug-03 23:33N 35°06' E 139°20'6 5.6
2015-Aug-03 22:33N 35°03' E 139°15'1 1.2
2015-Aug-03 21:33N 35°02' E 139°16'7 6.5
2015-Aug-03 20:33N 35°09' E 139°16'5 4.6
2015-Aug-03 19:34N 35°05' E 139°19'6 6.1
2015-Aug-03 18:33N 34°59' E 139°15'6 5.6
2015-Aug-03 17:33N 35°03' E 139°20'0 0.5
2015-Aug-03 16:33N 35°03' E 139°20'7 7.2
2015-Aug-03 15:33N 35°10' E 139°23'7 6.9
2015-Aug-03 14:33N 35°03' E 139°23'7 7.1
2015-Aug-03 13:33N 35°08' E 139°17'1414.0
2015-Aug-03 12:33N 34°54' E 139°17'1211.9
2015-Aug-03 11:33N 34°55' E 139°31'1211.5
2015-Aug-03 10:33N 35°00' E 139°44'1212.4
2015-Aug-03 09:33N 35°12' E 139°46'1111.4
2015-Aug-03 08:33N 35°23' E 139°42'1111.4
2015-Aug-03 07:34N 35°31' E 139°53'5 4.7
2015-Aug-03 06:33N 35°33' E 139°58'5 5.3
2015-Aug-03 05:33N 35°33' E 140°04'1 1.2
2015-Aug-03 04:33N 35°33' E 140°05'0 0.0
2015-Aug-03 03:27N 35°33' E 140°05'0 0.0
2015-Aug-03 02:33N 35°33' E 140°05'0 0.0
2015-Aug-03 01:33N 35°33' E 140°05'  
2015-Jul-31 07:21N 35°33' E 140°05'0 0.0
2015-Jul-31 06:30N 35°33' E 140°05'0 0.0
2015-Jul-31 05:30N 35°33' E 140°05'0 0.0
2015-Jul-31 04:27N 35°33' E 140°05'0 0.0
2015-Jul-31 03:33N 35°33' E 140°05'0 0.0
2015-Jul-31 02:27N 35°33' E 140°05'0 0.0
2015-Jul-31 01:27N 35°33' E 140°05'0 0.0
2015-Jul-31 00:30N 35°33' E 140°05'0 0.0
2015-Jul-30 07:12N 35°33' E 140°05'0 0.0
2015-Jul-30 06:33N 35°33' E 140°05'0 0.0
2015-Jul-30 05:33N 35°33' E 140°05'0 0.0
2015-Jul-30 04:33N 35°33' E 140°05'0 0.0
2015-Jul-30 03:30N 35°33' E 140°05'0 0.0
2015-Jul-30 02:33N 35°33' E 140°05'0 0.0
2015-Jul-30 01:30N 35°33' E 140°05'0 0.0
2015-Jul-30 00:32N 35°33' E 140°05'0 0.0
2015-Jul-29 23:32N 35°33' E 140°05'0 0.0
2015-Jul-29 07:28N 35°33' E 140°05'0 0.0
2015-Jul-29 06:31N 35°33' E 140°05'0 0.0
2015-Jul-29 05:28N 35°33' E 140°05'0 0.0
2015-Jul-29 04:31N 35°33' E 140°05'0 0.0
2015-Jul-29 03:28N 35°33' E 140°05'0 0.0
2015-Jul-29 02:28N 35°33' E 140°05'0 0.0
2015-Jul-29 01:25N 35°33' E 140°05'0 0.0
2015-Jul-29 00:31N 35°33' E 140°05'0 0.0
2015-Jul-28 23:28N 35°33' E 140°05'0 0.0
2015-Jul-28 22:29N 35°33' E 140°05'0 0.0
2015-Jul-28 07:28N 35°33' E 140°05'0 0.0
2015-Jul-28 06:31N 35°33' E 140°05'  
Track history (hours):
 
Tides and Currents Weather Stations Pressure Air Temp Water Temp Dewpoint Dewpoint Depression Visibility Wind Speed Wind Dir Waves Ship Positions

Mt New Conquest

Last reported at 2015-Aug-04 13:34 UTC. Time now 2015-Aug-04 13:57 UTC.
Position N 35°06' E 139°18'.

Length 228 m; draft 8.4 m.

Type: Tanker. MMSI: 538002089.

Date/timePositionNaut miles runAvg speedWind from/ knotsBaromVisibWave heightAir tempDewpointWater temp
2015-Aug-04 13:34N 35°06' E 139°18'4 4.2
2015-Aug-04 12:33N 35°08' E 139°13'4 3.8
2015-Aug-04 11:34N 35°06' E 139°17'0 0.3
2015-Aug-04 10:33N 35°06' E 139°17'0 0.3
2015-Aug-04 09:33N 35°05' E 139°17'2 2.1
2015-Aug-04 08:33N 35°05' E 139°15'3 3.2
2015-Aug-04 07:32N 35°04' E 139°11'3 3.0
2015-Aug-04 06:26N 35°02' E 139°08'5 5.2
2015-Aug-04 05:34N 35°04' E 139°13'6 6.3
2015-Aug-04 04:33N 35°03' E 139°21'4 3.9
2015-Aug-04 03:33N 35°02' E 139°16'4 3.7
2015-Aug-04 02:33N 35°05' E 139°18'2 1.7
2015-Aug-04 01:33N 35°06' E 139°20'6 5.9
2015-Aug-04 00:33N 35°02' E 139°15'6 6.2
2015-Aug-03 23:33N 35°06' E 139°20'6 5.6
2015-Aug-03 22:33N 35°03' E 139°15'1 1.2
2015-Aug-03 21:33N 35°02' E 139°16'7 6.5
2015-Aug-03 20:33N 35°09' E 139°16'5 4.6
2015-Aug-03 19:34N 35°05' E 139°19'6 6.1
2015-Aug-03 18:33N 34°59' E 139°15'6 5.6
2015-Aug-03 17:33N 35°03' E 139°20'0 0.5
2015-Aug-03 16:33N 35°03' E 139°20'7 7.2
2015-Aug-03 15:33N 35°10' E 139°23'7 6.9
2015-Aug-03 14:33N 35°03' E 139°23'7 7.1
2015-Aug-03 13:33N 35°08' E 139°17'1414.0
2015-Aug-03 12:33N 34°54' E 139°17'1211.9
2015-Aug-03 11:33N 34°55' E 139°31'1211.5
2015-Aug-03 10:33N 35°00' E 139°44'1212.4
2015-Aug-03 09:33N 35°12' E 139°46'1111.4
2015-Aug-03 08:33N 35°23' E 139°42'1111.4
2015-Aug-03 07:34N 35°31' E 139°53'5 4.7
2015-Aug-03 06:33N 35°33' E 139°58'5 5.3
2015-Aug-03 05:33N 35°33' E 140°04'1 1.2
2015-Aug-03 04:33N 35°33' E 140°05'0 0.0
2015-Aug-03 03:27N 35°33' E 140°05'0 0.0
2015-Aug-03 02:33N 35°33' E 140°05'0 0.0
2015-Aug-03 01:33N 35°33' E 140°05'  
2015-Jul-31 07:21N 35°33' E 140°05'0 0.0
2015-Jul-31 06:30N 35°33' E 140°05'0 0.0
2015-Jul-31 05:30N 35°33' E 140°05'0 0.0
2015-Jul-31 04:27N 35°33' E 140°05'0 0.0
2015-Jul-31 03:33N 35°33' E 140°05'0 0.0
2015-Jul-31 02:27N 35°33' E 140°05'0 0.0
2015-Jul-31 01:27N 35°33' E 140°05'0 0.0
2015-Jul-31 00:30N 35°33' E 140°05'0 0.0
2015-Jul-30 07:12N 35°33' E 140°05'0 0.0
2015-Jul-30 06:33N 35°33' E 140°05'0 0.0
2015-Jul-30 05:33N 35°33' E 140°05'0 0.0
2015-Jul-30 04:33N 35°33' E 140°05'0 0.0
2015-Jul-30 03:30N 35°33' E 140°05'0 0.0
2015-Jul-30 02:33N 35°33' E 140°05'0 0.0
2015-Jul-30 01:30N 35°33' E 140°05'0 0.0
2015-Jul-30 00:32N 35°33' E 140°05'0 0.0
2015-Jul-29 23:32N 35°33' E 140°05'0 0.0
2015-Jul-29 07:28N 35°33' E 140°05'0 0.0
2015-Jul-29 06:31N 35°33' E 140°05'0 0.0
2015-Jul-29 05:28N 35°33' E 140°05'0 0.0
2015-Jul-29 04:31N 35°33' E 140°05'0 0.0
2015-Jul-29 03:28N 35°33' E 140°05'0 0.0
2015-Jul-29 02:28N 35°33' E 140°05'0 0.0
2015-Jul-29 01:25N 35°33' E 140°05'0 0.0
2015-Jul-29 00:31N 35°33' E 140°05'0 0.0
2015-Jul-28 23:28N 35°33' E 140°05'0 0.0
2015-Jul-28 22:29N 35°33' E 140°05'0 0.0
2015-Jul-28 07:28N 35°33' E 140°05'0 0.0
2015-Jul-28 06:31N 35°33' E 140°05'  

Dump ship's entire track history